createdAt,value
2023-01-17T00:00:47.900Z,97429.25
2023-01-17T00:03:34.530Z,97430.19
2023-01-17T00:06:38.060Z,97423.69
2023-01-17T00:09:42.366Z,97426.16
2023-01-17T00:12:31.062Z,97429.88
2023-01-17T00:15:19.578Z,97432.59
2023-01-17T00:18:04.882Z,97426.00
2023-01-17T00:21:08.707Z,97434.19
2023-01-17T00:24:12.304Z,97420.38
2023-01-17T00:27:12.686Z,97423.09
2023-01-17T00:29:58.159Z,97417.41
2023-01-17T00:32:43.733Z,97428.41
2023-01-17T00:35:30.777Z,97422.97
2023-01-17T00:38:18.913Z,97429.34
2023-01-17T00:41:11.484Z,97425.22
2023-01-17T00:44:15.691Z,97432.44
2023-01-17T00:47:19.285Z,97427.13
2023-01-17T00:50:23.391Z,97423.50
2023-01-17T00:53:27.268Z,97418.53
2023-01-17T00:56:31.276Z,97425.94
2023-01-17T00:59:35.220Z,97429.16
2023-01-17T01:02:40.106Z,97432.69
2023-01-17T01:05:44.080Z,97424.78
2023-01-17T01:08:48.499Z,97428.69
2023-01-17T01:11:53.024Z,97427.63
2023-01-17T01:14:56.812Z,97425.16
2023-01-17T01:18:00.822Z,97429.00
2023-01-17T01:21:04.909Z,97431.50
2023-01-17T01:24:08.906Z,97427.50
2023-01-17T01:27:12.894Z,97437.53
2023-01-17T01:30:16.878Z,97440.22
2023-01-17T01:33:19.318Z,97429.16
2023-01-17T01:36:07.896Z,97440.25
2023-01-17T01:38:54.727Z,97425.94
2023-01-17T01:41:40.165Z,97433.63
2023-01-17T01:44:52.223Z,97434.78
2023-01-17T01:47:40.665Z,97441.53
2023-01-17T01:50:28.179Z,97444.97
2023-01-17T01:53:13.582Z,97437.41
2023-01-17T01:55:59.276Z,97447.66
2023-01-17T01:58:48.666Z,97443.41
2023-01-17T02:01:34.363Z,97444.94
2023-01-17T02:04:21.523Z,97451.56
2023-01-17T02:07:20.092Z,97449.41
2023-01-17T02:10:05.594Z,97451.78
2023-01-17T02:12:52.577Z,97445.19
2023-01-17T02:15:50.054Z,97449.28
2023-01-17T02:19:08.000Z,97447.88
2023-01-17T02:22:12.412Z,97437.88
2023-01-17T02:25:32.367Z,97447.31
2023-01-17T02:28:58.099Z,97443.16
2023-01-17T02:31:52.437Z,97444.25
2023-01-17T02:34:45.465Z,97440.44
2023-01-17T02:37:42.117Z,97447.63
2023-01-17T02:40:52.052Z,97454.13
2023-01-17T02:43:39.413Z,97452.94
2023-01-17T02:46:25.165Z,97454.72
2023-01-17T02:49:10.528Z,97450.13
2023-01-17T02:52:00.611Z,97444.25
2023-01-17T02:55:01.035Z,97453.19
2023-01-17T02:58:07.038Z,97435.03
2023-01-17T03:01:25.053Z,97428.56
2023-01-17T03:04:23.337Z,97447.28
2023-01-17T03:07:17.458Z,97443.16
2023-01-17T03:10:04.912Z,97449.28
2023-01-17T03:12:50.783Z,97444.00
2023-01-17T03:15:36.480Z,97446.81
2023-01-17T03:18:21.813Z,97447.06
2023-01-17T03:21:07.459Z,97449.88
2023-01-17T03:23:52.606Z,97453.66
2023-01-17T03:26:37.978Z,97458.16
2023-01-17T03:29:23.131Z,97446.81
2023-01-17T03:32:08.708Z,97445.19
2023-01-17T03:34:54.260Z,97457.78
2023-01-17T03:37:39.812Z,97460.84
2023-01-17T03:40:25.356Z,97464.97
2023-01-17T03:43:10.787Z,97472.41
2023-01-17T03:46:05.151Z,97469.34
2023-01-17T03:48:50.996Z,97474.91
2023-01-17T03:51:36.264Z,97481.00
2023-01-17T03:54:21.486Z,97496.56
2023-01-17T03:57:08.467Z,97494.78
2023-01-17T03:59:54.157Z,97485.56
2023-01-17T04:02:39.364Z,97496.31
2023-01-17T04:05:25.037Z,97514.09
2023-01-17T04:08:10.360Z,97524.84
2023-01-17T04:10:55.628Z,97511.16
2023-01-17T04:13:40.888Z,97519.41
2023-01-17T04:16:30.048Z,97514.53
2023-01-17T04:19:15.597Z,97524.09
2023-01-17T04:22:00.991Z,97529.06
2023-01-17T04:24:46.533Z,97533.53
2023-01-17T04:27:31.982Z,97536.72
2023-01-17T04:30:17.440Z,97541.22
2023-01-17T04:33:02.842Z,97547.22
2023-01-17T04:35:48.411Z,97546.69
2023-01-17T04:38:35.050Z,97545.44
2023-01-17T04:41:20.784Z,97544.03
2023-01-17T04:44:05.922Z,97545.28
2023-01-17T04:46:51.512Z,97528.75
2023-01-17T04:49:36.806Z,97541.38
2023-01-17T04:52:22.328Z,97540.66
2023-01-17T04:55:08.172Z,97551.28
2023-01-17T04:57:54.500Z,97544.09
2023-01-17T05:00:40.105Z,97551.28
2023-01-17T05:03:25.509Z,97553.75
2023-01-17T05:06:10.974Z,97550.69
2023-01-17T05:08:56.360Z,97550.47
2023-01-17T05:11:42.051Z,97564.97
2023-01-17T05:14:27.643Z,97557.31
2023-01-17T05:17:13.054Z,97557.69
2023-01-17T05:19:58.267Z,97548.59
2023-01-17T05:22:43.770Z,97569.59
2023-01-17T05:25:31.120Z,97557.47
2023-01-17T05:28:16.452Z,97567.94
2023-01-17T05:31:02.163Z,97575.72
2023-01-17T05:33:47.804Z,97581.28
2023-01-17T05:36:33.047Z,97577.16
2023-01-17T05:39:18.818Z,97581.97
2023-01-17T05:42:04.648Z,97592.84
2023-01-17T05:44:49.912Z,97589.63
2023-01-17T05:47:35.100Z,97591.63
2023-01-17T05:50:34.765Z,97597.31
2023-01-17T05:53:20.615Z,97602.44
2023-01-17T05:56:06.244Z,97616.50
2023-01-17T05:58:51.912Z,97618.81
2023-01-17T06:01:37.147Z,97634.97
2023-01-17T06:04:22.865Z,97637.44
2023-01-17T06:07:08.421Z,97642.63
2023-01-17T06:09:53.711Z,97640.47
2023-01-17T06:12:38.959Z,97642.34
2023-01-17T06:15:24.416Z,97648.19
2023-01-17T06:18:12.176Z,97658.00
2023-01-17T06:20:57.396Z,97676.75
2023-01-17T06:23:42.618Z,97662.91
2023-01-17T06:26:28.127Z,97676.72
2023-01-17T06:29:13.711Z,97678.78
2023-01-17T06:32:01.533Z,97682.94
2023-01-17T06:34:47.312Z,97684.03
2023-01-17T06:37:32.831Z,97699.44
2023-01-17T06:40:19.249Z,97709.38
2023-01-17T06:43:05.486Z,97715.59
2023-01-17T06:45:51.453Z,97734.81
2023-01-17T06:48:37.727Z,97732.91
2023-01-17T06:51:23.364Z,97735.97
2023-01-17T06:54:09.912Z,97762.47
2023-01-17T06:56:55.249Z,97763.81
2023-01-17T06:59:40.600Z,97783.50
2023-01-17T07:02:26.229Z,97789.00
2023-01-17T07:05:11.493Z,97790.78
2023-01-17T07:07:57.638Z,97806.41
2023-01-17T07:10:45.104Z,97817.59
2023-01-17T07:13:36.153Z,97817.19
2023-01-17T07:16:21.600Z,97835.53
2023-01-17T07:19:07.352Z,97843.31
2023-01-17T07:21:54.013Z,97860.59
2023-01-17T07:24:39.614Z,97854.81
2023-01-17T07:27:25.968Z,97856.53
2023-01-17T07:30:11.859Z,97867.09
2023-01-17T07:32:57.264Z,97862.94
2023-01-17T07:35:42.975Z,97872.16
2023-01-17T07:38:28.357Z,97884.06
2023-01-17T07:41:14.217Z,97880.34
2023-01-17T07:43:59.695Z,97887.41
2023-01-17T07:46:45.045Z,97903.34
2023-01-17T07:49:30.619Z,97918.84
2023-01-17T07:52:18.064Z,97932.19
2023-01-17T07:55:03.728Z,97925.31
2023-01-17T07:57:50.629Z,97937.47
2023-01-17T08:00:36.230Z,97929.16
2023-01-17T08:03:21.777Z,97934.06
2023-01-17T08:06:20.099Z,97948.31
2023-01-17T08:09:05.364Z,97942.22
2023-01-17T08:11:50.902Z,97944.88
2023-01-17T08:14:36.709Z,97952.66
2023-01-17T08:17:22.190Z,97951.81
2023-01-17T08:20:07.898Z,97961.50
2023-01-17T08:22:57.327Z,97956.59
2023-01-17T08:25:42.623Z,97965.00
2023-01-17T08:28:28.315Z,97977.19
2023-01-17T08:31:13.678Z,97972.09
2023-01-17T08:33:59.275Z,97975.22
2023-01-17T08:36:45.344Z,97975.75
2023-01-17T08:39:30.981Z,97973.34
2023-01-17T08:42:16.725Z,97979.66
2023-01-17T08:45:02.133Z,97981.13
2023-01-17T08:47:47.478Z,97995.28
2023-01-17T08:50:32.938Z,97998.75
2023-01-17T08:53:21.520Z,98002.38
2023-01-17T08:56:07.328Z,98006.69
2023-01-17T08:58:53.188Z,98016.09
2023-01-17T09:01:42.111Z,98012.59
2023-01-17T09:04:27.829Z,98030.59
2023-01-17T09:07:13.956Z,98027.28
2023-01-17T09:09:59.204Z,98002.63
2023-01-17T09:12:44.532Z,98039.84
2023-01-17T09:15:29.878Z,98033.28
2023-01-17T09:18:15.395Z,98043.97
2023-01-17T09:21:16.016Z,98058.47
2023-01-17T09:24:01.415Z,98045.50
2023-01-17T09:26:46.889Z,98076.06
2023-01-17T09:29:32.307Z,98059.91
2023-01-17T09:32:17.822Z,98067.19
2023-01-17T09:35:05.129Z,98078.22
2023-01-17T09:37:51.254Z,98081.22
2023-01-17T09:40:41.746Z,98108.59
2023-01-17T09:43:36.998Z,98098.38
2023-01-17T09:46:28.578Z,98101.75
2023-01-17T09:49:29.516Z,98115.91
2023-01-17T09:52:19.371Z,98103.09
2023-01-17T09:55:07.913Z,98116.28
2023-01-17T09:58:03.082Z,98109.16
2023-01-17T10:01:22.124Z,98121.94
2023-01-17T10:04:29.544Z,98117.91
2023-01-17T10:07:54.513Z,98123.78
2023-01-17T10:10:42.953Z,98139.97
2023-01-17T10:14:04.854Z,98123.16
2023-01-17T10:17:24.372Z,98140.19
2023-01-17T10:20:33.952Z,98147.09
2023-01-17T10:23:51.952Z,98154.34
2023-01-17T10:26:38.175Z,98151.19
2023-01-17T10:29:28.339Z,98159.88
2023-01-17T10:32:14.784Z,98157.38
2023-01-17T10:35:15.827Z,98151.53
2023-01-17T10:38:05.800Z,98146.63
2023-01-17T10:40:56.586Z,98151.94
2023-01-17T10:43:50.837Z,98149.88
2023-01-17T10:46:44.949Z,98146.88
2023-01-17T10:49:30.601Z,98165.25
2023-01-17T10:52:22.083Z,98160.66
2023-01-17T10:55:47.977Z,98150.25
2023-01-17T10:58:33.521Z,98157.75
2023-01-17T11:01:21.396Z,98151.91
2023-01-17T11:04:18.459Z,98159.34
2023-01-17T11:07:29.930Z,98152.19
2023-01-17T11:10:53.883Z,98154.13
2023-01-17T11:13:39.416Z,98158.38
2023-01-17T11:16:27.696Z,98155.94
2023-01-17T11:19:25.848Z,98154.38
2023-01-17T11:22:14.745Z,98158.00
2023-01-17T11:25:01.147Z,98169.38
2023-01-17T11:27:59.452Z,98170.03
2023-01-17T11:30:56.673Z,98161.25
2023-01-17T11:33:47.595Z,98171.47
2023-01-17T11:36:34.008Z,98175.19
2023-01-17T11:39:19.224Z,98170.50
2023-01-17T11:42:06.139Z,98184.84
2023-01-17T11:44:51.670Z,98173.84
2023-01-17T11:47:37.061Z,98169.91
2023-01-17T11:50:24.681Z,98171.06
2023-01-17T11:53:31.371Z,98173.84
2023-01-17T11:56:30.710Z,98184.31
2023-01-17T11:59:23.363Z,98175.56
2023-01-17T12:02:40.100Z,98189.00
2023-01-17T12:05:40.685Z,98184.75
2023-01-17T12:08:42.376Z,98177.66
2023-01-17T12:12:10.283Z,98189.69
2023-01-17T12:15:16.516Z,98183.31
2023-01-17T12:18:22.074Z,98189.09
2023-01-17T12:21:22.116Z,98186.84
2023-01-17T12:24:23.765Z,98179.84
2023-01-17T12:27:19.261Z,98196.41
2023-01-17T12:30:33.367Z,98187.75
2023-01-17T12:33:36.656Z,98185.34
2023-01-17T12:36:21.876Z,98185.13
2023-01-17T12:39:11.707Z,98175.50
2023-01-17T12:42:03.444Z,98178.38
2023-01-17T12:45:09.006Z,98187.16
2023-01-17T12:48:06.006Z,98182.03
2023-01-17T12:50:57.206Z,98204.59
2023-01-17T12:53:54.754Z,98198.88
2023-01-17T12:56:47.604Z,98201.25
2023-01-17T12:59:56.367Z,98201.94
2023-01-17T13:02:44.291Z,98204.84
2023-01-17T13:05:36.839Z,98221.09
2023-01-17T13:08:31.476Z,98213.19
2023-01-17T13:11:33.418Z,98227.38
2023-01-17T13:14:18.995Z,98229.25
2023-01-17T13:17:33.392Z,98234.03
2023-01-17T13:20:33.544Z,98229.50
2023-01-17T13:23:58.940Z,98223.38
2023-01-17T13:27:00.103Z,98231.19
2023-01-17T13:30:31.085Z,98232.44
2023-01-17T13:33:22.438Z,98240.50
2023-01-17T13:36:16.640Z,98231.69
2023-01-17T13:39:29.679Z,98240.34
2023-01-17T13:42:29.268Z,98276.16
2023-01-17T13:45:26.185Z,98264.34
2023-01-17T13:48:18.034Z,98253.13
2023-01-17T13:51:10.522Z,98258.56
2023-01-17T13:53:56.202Z,98275.41
2023-01-17T13:56:41.716Z,98277.97
2023-01-17T13:59:28.972Z,98285.38
2023-01-17T14:02:32.299Z,98283.41
2023-01-17T14:05:47.451Z,98292.88
2023-01-17T14:08:36.950Z,98297.59
2023-01-17T14:11:22.373Z,98288.34
2023-01-17T14:14:41.764Z,98300.66
2023-01-17T14:17:44.097Z,98294.63
2023-01-17T14:20:39.420Z,98305.41
2023-01-17T14:23:32.689Z,98298.47
2023-01-17T14:26:23.091Z,98317.84
2023-01-17T14:29:42.527Z,98323.03
2023-01-17T14:32:37.004Z,98325.78
2023-01-17T14:35:23.576Z,98345.63
2023-01-17T14:38:27.088Z,98345.00
2023-01-17T14:41:23.728Z,98352.66
2023-01-17T14:44:11.365Z,98362.22
2023-01-17T14:46:57.987Z,98358.81
2023-01-17T14:49:44.240Z,98369.91
2023-01-17T14:52:29.426Z,98366.91
2023-01-17T14:55:18.423Z,98366.50
2023-01-17T14:58:04.679Z,98373.63
2023-01-17T15:00:53.434Z,98376.72
2023-01-17T15:03:55.848Z,98382.22
2023-01-17T15:06:41.682Z,98380.59
2023-01-17T15:09:32.513Z,98382.94
2023-01-17T15:12:19.431Z,98381.03
2023-01-17T15:15:05.241Z,98385.16
2023-01-17T15:17:53.589Z,98376.50
2023-01-17T15:20:40.995Z,98378.81
2023-01-17T15:23:33.381Z,98380.09
2023-01-17T15:26:22.311Z,98374.53
2023-01-17T15:29:15.597Z,98382.16
2023-01-17T15:32:03.720Z,98391.88
2023-01-17T15:34:51.034Z,98389.81
2023-01-17T15:37:39.769Z,98392.28
2023-01-17T15:40:25.969Z,98391.47
2023-01-17T15:43:20.130Z,98389.63
2023-01-17T15:46:05.577Z,98399.19
2023-01-17T15:48:51.837Z,98391.41
2023-01-17T15:51:38.835Z,98401.84
2023-01-17T15:54:50.665Z,98397.41
2023-01-17T15:57:37.382Z,98398.50
2023-01-17T16:00:32.394Z,98401.56
2023-01-17T16:03:25.276Z,98404.19
2023-01-17T16:06:35.140Z,98410.81
2023-01-17T16:09:24.847Z,98422.94
2023-01-17T16:12:10.724Z,98414.06
2023-01-17T16:15:11.116Z,98424.34
2023-01-17T16:18:15.308Z,98423.69
2023-01-17T16:21:08.737Z,98419.25
2023-01-17T16:23:54.710Z,98427.88
2023-01-17T16:26:40.009Z,98423.22
2023-01-17T16:29:25.981Z,98426.38
2023-01-17T16:32:11.459Z,98420.69
2023-01-17T16:34:57.152Z,98430.78
2023-01-17T16:37:42.723Z,98430.47
2023-01-17T16:40:31.402Z,98432.75
2023-01-17T16:43:18.899Z,98432.22
2023-01-17T16:46:04.622Z,98435.66
2023-01-17T16:48:50.139Z,98431.09
2023-01-17T16:51:35.781Z,98435.06
2023-01-17T16:54:21.411Z,98438.47
2023-01-17T16:57:06.738Z,98436.59
2023-01-17T16:59:53.138Z,98450.56
2023-01-17T17:02:40.529Z,98446.31
2023-01-17T17:05:26.593Z,98454.28
2023-01-17T17:08:12.544Z,98454.09
2023-01-17T17:11:18.951Z,98462.25
2023-01-17T17:14:04.274Z,98475.28
2023-01-17T17:16:51.882Z,98473.09
2023-01-17T17:19:37.705Z,98487.16
2023-01-17T17:22:23.213Z,98476.44
2023-01-17T17:25:09.898Z,98489.28
2023-01-17T17:27:55.492Z,98492.81
2023-01-17T17:30:41.221Z,98492.94
2023-01-17T17:33:26.617Z,98496.66
2023-01-17T17:36:12.195Z,98507.59
2023-01-17T17:38:58.337Z,98501.75
2023-01-17T17:41:45.770Z,98516.72
2023-01-17T17:44:31.125Z,98522.59
2023-01-17T17:47:16.533Z,98521.34
2023-01-17T17:50:02.609Z,98513.75
2023-01-17T17:52:48.398Z,98520.66
2023-01-17T17:55:35.100Z,98522.03
2023-01-17T17:58:20.883Z,98525.13
2023-01-17T18:01:06.954Z,98533.25
2023-01-17T18:03:54.685Z,98527.31
2023-01-17T18:06:40.376Z,98529.22
2023-01-17T18:09:26.090Z,98535.44
2023-01-17T18:12:11.267Z,98540.72
2023-01-17T18:14:56.923Z,98541.50
2023-01-17T18:17:42.268Z,98533.28
2023-01-17T18:20:27.810Z,98537.06
2023-01-17T18:23:13.147Z,98548.84
2023-01-17T18:25:58.877Z,98551.22
2023-01-17T18:28:44.784Z,98547.88
2023-01-17T18:31:30.853Z,98558.97
2023-01-17T18:34:21.042Z,98558.06
2023-01-17T18:37:06.661Z,98554.72
2023-01-17T18:39:51.909Z,98548.44
2023-01-17T18:42:37.622Z,98559.47
2023-01-17T18:45:23.032Z,98563.66
2023-01-17T18:48:08.331Z,98554.88
2023-01-17T18:51:17.544Z,98561.75
2023-01-17T18:54:06.808Z,98557.75
2023-01-17T18:56:54.902Z,98564.63
2023-01-17T18:59:40.308Z,98553.16
2023-01-17T19:02:25.527Z,98561.66
2023-01-17T19:05:11.939Z,98560.28
2023-01-17T19:07:57.450Z,98561.66
2023-01-17T19:10:43.964Z,98561.91
2023-01-17T19:13:30.009Z,98568.16
2023-01-17T19:16:17.494Z,98570.16
2023-01-17T19:19:08.944Z,98565.91
2023-01-17T19:21:54.487Z,98562.75
2023-01-17T19:24:40.733Z,98574.66
2023-01-17T19:27:26.100Z,98565.84
2023-01-17T19:30:12.129Z,98572.75
2023-01-17T19:32:57.476Z,98571.19
2023-01-17T19:35:42.663Z,98575.50
2023-01-17T19:38:28.333Z,98579.09
2023-01-17T19:41:15.137Z,98576.66
2023-01-17T19:44:03.154Z,98582.97
2023-01-17T19:46:48.912Z,98586.03
2023-01-17T19:49:34.247Z,98585.09
2023-01-17T19:52:19.605Z,98587.81
2023-01-17T19:55:09.996Z,98596.88
2023-01-17T19:57:55.753Z,98596.19
2023-01-17T20:00:46.479Z,98600.38
2023-01-17T20:03:32.369Z,98592.00
2023-01-17T20:06:23.787Z,98593.25
2023-01-17T20:09:09.064Z,98593.78
2023-01-17T20:11:54.695Z,98593.22
2023-01-17T20:14:39.949Z,98600.03
2023-01-17T20:17:25.472Z,98602.09
2023-01-17T20:20:12.909Z,98594.59
2023-01-17T20:22:58.629Z,98595.97
2023-01-17T20:25:52.953Z,98610.31
2023-01-17T20:28:40.288Z,98618.69
2023-01-17T20:31:26.639Z,98630.03
2023-01-17T20:34:13.868Z,98629.41
2023-01-17T20:36:59.567Z,98628.47
2023-01-17T20:39:45.797Z,98627.63
2023-01-17T20:42:31.185Z,98626.59
2023-01-17T20:45:16.520Z,98620.44
2023-01-17T20:48:01.853Z,98628.22
2023-01-17T20:50:47.318Z,98631.81
2023-01-17T20:53:36.195Z,98630.59
2023-01-17T20:56:21.568Z,98641.81
2023-01-17T20:59:09.489Z,98633.63
2023-01-17T21:01:54.807Z,98647.44
2023-01-17T21:04:40.377Z,98644.88
2023-01-17T21:07:26.074Z,98649.38
2023-01-17T21:10:11.777Z,98637.50
2023-01-17T21:12:57.377Z,98639.19
2023-01-17T21:15:48.217Z,98653.59
2023-01-17T21:18:34.483Z,98639.25
2023-01-17T21:21:26.432Z,98660.91
2023-01-17T21:24:18.311Z,98648.88
2023-01-17T21:27:03.945Z,98655.56
2023-01-17T21:29:49.181Z,98671.09
2023-01-17T21:32:34.611Z,98672.66
2023-01-17T21:35:20.476Z,98681.53
2023-01-17T21:38:05.749Z,98683.00
2023-01-17T21:40:56.377Z,98681.84
2023-01-17T21:43:42.162Z,98694.66
2023-01-17T21:46:28.487Z,98681.69
2023-01-17T21:49:14.033Z,98684.03
2023-01-17T21:51:59.478Z,98680.66
2023-01-17T21:55:03.794Z,98681.44
2023-01-17T21:58:07.971Z,98675.53
2023-01-17T22:01:07.657Z,98689.88
2023-01-17T22:04:01.048Z,98689.03
2023-01-17T22:06:46.512Z,98683.41
2023-01-17T22:09:32.192Z,98684.59
2023-01-17T22:12:17.927Z,98686.06
2023-01-17T22:15:04.028Z,98702.16
2023-01-17T22:17:49.602Z,98697.13
2023-01-17T22:20:39.384Z,98699.41
2023-01-17T22:23:24.970Z,98691.97
2023-01-17T22:26:11.648Z,98694.94
2023-01-17T22:29:00.575Z,98699.47
2023-01-17T22:31:45.990Z,98697.03
2023-01-17T22:34:31.593Z,98687.72
2023-01-17T22:37:17.171Z,98699.75
2023-01-17T22:40:04.789Z,98699.59
2023-01-17T22:42:50.145Z,98710.91
2023-01-17T22:45:35.725Z,98711.22
2023-01-17T22:48:21.127Z,98715.59
2023-01-17T22:51:09.705Z,98726.56
2023-01-17T22:53:58.339Z,98726.84
2023-01-17T22:56:44.014Z,98727.69
2023-01-17T22:59:29.290Z,98730.81
2023-01-17T23:02:16.586Z,98729.88
2023-01-17T23:05:02.115Z,98739.78
2023-01-17T23:07:49.908Z,98758.19
2023-01-17T23:10:53.716Z,98753.19
2023-01-17T23:13:39.173Z,98747.38
2023-01-17T23:16:43.195Z,98738.59
2023-01-17T23:19:31.697Z,98753.84
2023-01-17T23:22:26.876Z,98770.09
2023-01-17T23:25:14.145Z,98771.09
2023-01-17T23:28:11.506Z,98762.78
2023-01-17T23:31:03.027Z,98763.00
2023-01-17T23:33:49.125Z,98764.56
2023-01-17T23:36:34.734Z,98778.00
2023-01-17T23:39:20.177Z,98780.66
2023-01-17T23:42:23.864Z,98779.78
2023-01-17T23:45:10.136Z,98782.88
2023-01-17T23:47:55.635Z,98772.78
2023-01-17T23:50:44.276Z,98774.72
2023-01-17T23:53:29.575Z,98779.44
2023-01-17T23:56:20.890Z,98779.81
2023-01-17T23:59:06.459Z,98783.84
